This is the latest recevied weather packets stored in our database for station/object K3CHZ. If no packets are shown the sender has not sent any weather packets the latest 1 day(s).
| Time | Temp. | Humidity | Pressure | Rain* | Wind** | Luminosity | Snow |
|---|---|---|---|---|---|---|---|
| 1778105540 | 20° C | 81% | 1008.4 hPa | 0 mm | - | - | - |
| 1778105242 | 20° C | 80% | 1008.4 hPa | 0 mm | - | - | - |
| 1778104641 | 20° C | 80% | 1008.4 hPa | 0 mm | - | - | - |
| 1778103440 | 20.56° C | 79% | 1008.1 hPa | 0 mm | - | - | - |
| 1778101040 | 20.56° C | 78% | 1007.8 hPa | 0 mm | - | - | - |
| 1778100441 | 20.56° C | 79% | 1007.8 hPa | 0 mm | - | - | - |
| 1778099840 | 20.56° C | 80% | 1007.6 hPa | 0 mm | - | - | - |
| 1778099540 | 20.56° C | 80% | 1007.8 hPa | 0 mm | - | - | - |
| 1778099104 | 20° C | 79% | 1007.9 hPa | 0 mm | - | - | - |
| 1778097737 | 20.56° C | 77% | 1007.8 hPa | 0 mm | - | - | - |
| 1778096537 | 20° C | 79% | 1008 hPa | 0 mm | - | - | - |
| 1778095638 | 20° C | 79% | 1007.9 hPa | 0 mm | - | - | - |
| 1778095340 | 20° C | 81% | 1008 hPa | 0 mm | - | - | - |
| 1778095040 | 19.44° C | 82% | 1008.1 hPa | 0 mm | - | - | - |
| 1778094140 | 18.89° C | 83% | 1008.2 hPa | 0 mm | - | - | - |
| 1778093840 | 18.89° C | 83% | 1008.2 hPa | 0 mm | - | - | - |
| 1778093540 | 18.89° C | 82% | 1008.4 hPa | 0 mm | - | - | - |
| 1778093242 | 18.89° C | 83% | 1008.5 hPa | 0 mm | - | - | - |
| 1778092037 | 18.33° C | 84% | 1008.5 hPa | 0 mm | - | - | - |
| 1778091438 | 17.78° C | 85% | 1008.6 hPa | 0 mm | - | - | - |
| 1778090537 | 17.78° C | 86% | 1008.7 hPa | 0 mm | - | - | - |
| 1778090238 | 17.78° C | 87% | 1008.8 hPa | 0 mm | - | - | - |
| 1778089938 | 17.78° C | 85% | 1008.8 hPa | 0 mm | - | - | - |
| 1778089338 | 17.78° C | 86% | 1008.7 hPa | 0 mm | - | - | - |
| 1778089037 | 17.78° C | 86% | 1008.7 hPa | 0 mm | - | - | - |
* Rain latest hour (hover to see other rain measurements)
** Current wind speed in m/s (hover to see current wind gust speed)